sensor_id;sensor_type;location;lat;lon;timestamp;temperature;humidity
21493;DHT22;10908;50.690;4.400;2022-12-18T00:00:47;-3271.90;83.80
21493;DHT22;10908;50.690;4.400;2022-12-18T00:03:16;-3271.90;83.90
21493;DHT22;10908;50.690;4.400;2022-12-18T00:05:49;-3271.90;84.30
21493;DHT22;10908;50.690;4.400;2022-12-18T00:08:15;-3271.90;84.60
21493;DHT22;10908;50.690;4.400;2022-12-18T00:10:41;-3271.90;84.60
21493;DHT22;10908;50.690;4.400;2022-12-18T00:13:06;-3272.20;84.70
21493;DHT22;10908;50.690;4.400;2022-12-18T00:15:36;-3272.40;84.50
21493;DHT22;10908;50.690;4.400;2022-12-18T00:18:02;-3272.20;83.80
21493;DHT22;10908;50.690;4.400;2022-12-18T00:20:28;-3272.00;83.30
21493;DHT22;10908;50.690;4.400;2022-12-18T00:22:54;-3271.90;83.10
21493;DHT22;10908;50.690;4.400;2022-12-18T00:25:20;-3271.90;83.30
21493;DHT22;10908;50.690;4.400;2022-12-18T00:27:47;-3272.20;83.50
21493;DHT22;10908;50.690;4.400;2022-12-18T00:30:13;-3272.40;83.50
21493;DHT22;10908;50.690;4.400;2022-12-18T00:32:39;-3272.50;83.50
21493;DHT22;10908;50.690;4.400;2022-12-18T00:35:06;-3272.40;83.10
21493;DHT22;10908;50.690;4.400;2022-12-18T00:37:33;-3272.40;82.80
21493;DHT22;10908;50.690;4.400;2022-12-18T00:39:59;-3272.70;82.80
21493;DHT22;10908;50.690;4.400;2022-12-18T00:42:24;-3272.80;82.60
21493;DHT22;10908;50.690;4.400;2022-12-18T00:45:09;-3272.80;82.40
21493;DHT22;10908;50.690;4.400;2022-12-18T00:47:34;-3272.60;82.20
21493;DHT22;10908;50.690;4.400;2022-12-18T00:50:00;-3272.40;82.10
21493;DHT22;10908;50.690;4.400;2022-12-18T00:52:25;-3272.40;82.30
21493;DHT22;10908;50.690;4.400;2022-12-18T00:54:51;-3272.30;82.80
21493;DHT22;10908;50.690;4.400;2022-12-18T00:57:17;-3272.30;83.20
21493;DHT22;10908;50.690;4.400;2022-12-18T00:59:42;-3272.10;83.00
21493;DHT22;10908;50.690;4.400;2022-12-18T01:02:08;-3272.00;83.00
21493;DHT22;10908;50.690;4.400;2022-12-18T01:04:33;-3271.90;83.10
21493;DHT22;10908;50.690;4.400;2022-12-18T01:06:59;-3271.80;83.10
21493;DHT22;10908;50.690;4.400;2022-12-18T01:09:25;-3271.80;83.10
21493;DHT22;10908;50.690;4.400;2022-12-18T01:11:51;-3271.70;83.00
21493;DHT22;10908;50.690;4.400;2022-12-18T01:14:17;-3271.70;82.90
21493;DHT22;10908;50.690;4.400;2022-12-18T01:16:42;-3271.50;82.90
21493;DHT22;10908;50.690;4.400;2022-12-18T01:19:08;-3271.50;83.00
21493;DHT22;10908;50.690;4.400;2022-12-18T01:21:33;-3271.40;83.10
21493;DHT22;10908;50.690;4.400;2022-12-18T01:23:59;-3271.70;83.30
21493;DHT22;10908;50.690;4.400;2022-12-18T01:26:25;-3271.70;82.90
21493;DHT22;10908;50.690;4.400;2022-12-18T01:28:54;-3271.50;82.30
21493;DHT22;10908;50.690;4.400;2022-12-18T01:31:25;-3271.30;82.40
21493;DHT22;10908;50.690;4.400;2022-12-18T01:33:52;-3271.30;82.70
21493;DHT22;10908;50.690;4.400;2022-12-18T01:36:22;-3271.30;83.00
21493;DHT22;10908;50.690;4.400;2022-12-18T01:38:49;-3271.40;83.30
21493;DHT22;10908;50.690;4.400;2022-12-18T01:41:17;-3271.60;83.30
21493;DHT22;10908;50.690;4.400;2022-12-18T01:43:46;-3271.60;83.50
21493;DHT22;10908;50.690;4.400;2022-12-18T01:46:12;-3271.70;83.60
21493;DHT22;10908;50.690;4.400;2022-12-18T01:48:39;-3271.60;83.40
21493;DHT22;10908;50.690;4.400;2022-12-18T01:51:06;-3271.60;83.40
21493;DHT22;10908;50.690;4.400;2022-12-18T01:53:33;-3271.90;83.40
21493;DHT22;10908;50.690;4.400;2022-12-18T01:55:59;-3272.00;82.90
21493;DHT22;10908;50.690;4.400;2022-12-18T01:58:32;-3271.80;82.40
21493;DHT22;10908;50.690;4.400;2022-12-18T02:01:00;-3271.60;82.10
21493;DHT22;10908;50.690;4.400;2022-12-18T02:03:25;-3271.50;82.20
21493;DHT22;10908;50.690;4.400;2022-12-18T02:06:04;-3271.40;82.10
21493;DHT22;10908;50.690;4.400;2022-12-18T02:11:29;-3271.20;82.60
21493;DHT22;10908;50.690;4.400;2022-12-18T02:14:19;-3271.10;82.90
21493;DHT22;10908;50.690;4.400;2022-12-18T02:22:11;-3270.90;83.50
21493;DHT22;10908;50.690;4.400;2022-12-18T02:24:55;-3270.90;83.40
21493;DHT22;10908;50.690;4.400;2022-12-18T02:27:23;-3270.90;83.40
21493;DHT22;10908;50.690;4.400;2022-12-18T02:29:53;-3271.00;83.10
21493;DHT22;10908;50.690;4.400;2022-12-18T02:32:25;-3270.80;82.40
21493;DHT22;10908;50.690;4.400;2022-12-18T02:34:53;-3270.70;82.40
21493;DHT22;10908;50.690;4.400;2022-12-18T02:37:20;-3270.70;82.50
21493;DHT22;10908;50.690;4.400;2022-12-18T02:39:48;-3270.80;82.60
21493;DHT22;10908;50.690;4.400;2022-12-18T02:42:16;-3270.90;82.60
21493;DHT22;10908;50.690;4.400;2022-12-18T02:44:43;-3270.70;82.10
21493;DHT22;10908;50.690;4.400;2022-12-18T02:47:11;-3270.60;82.10
21493;DHT22;10908;50.690;4.400;2022-12-18T02:55:20;-3270.80;82.20
21493;DHT22;10908;50.690;4.400;2022-12-18T02:57:56;-3271.10;81.70
21493;DHT22;10908;50.690;4.400;2022-12-18T03:00:31;-3270.90;81.60
21493;DHT22;10908;50.690;4.400;2022-12-18T03:03:22;-3270.80;82.00
21493;DHT22;10908;50.690;4.400;2022-12-18T03:06:00;-3271.00;82.40
21493;DHT22;10908;50.690;4.400;2022-12-18T03:08:36;-3271.00;82.60
21493;DHT22;10908;50.690;4.400;2022-12-18T03:11:08;-3271.20;82.70
21493;DHT22;10908;50.690;4.400;2022-12-18T03:16:12;-3271.20;82.30
21493;DHT22;10908;50.690;4.400;2022-12-18T03:19:07;-3271.40;82.30
21493;DHT22;10908;50.690;4.400;2022-12-18T03:21:41;-3271.20;81.80
21493;DHT22;10908;50.690;4.400;2022-12-18T03:24:09;-3271.10;81.70
21493;DHT22;10908;50.690;4.400;2022-12-18T03:26:38;-3271.00;81.70
21493;DHT22;10908;50.690;4.400;2022-12-18T03:29:13;-3271.10;81.70
21493;DHT22;10908;50.690;4.400;2022-12-18T03:31:44;-3270.90;81.40
21493;DHT22;10908;50.690;4.400;2022-12-18T03:34:16;-3270.90;81.40
21493;DHT22;10908;50.690;4.400;2022-12-18T03:36:45;-3271.00;81.50
21493;DHT22;10908;50.690;4.400;2022-12-18T03:39:11;-3270.90;81.10
21493;DHT22;10908;50.690;4.400;2022-12-18T03:41:59;-3270.70;80.90
21493;DHT22;10908;50.690;4.400;2022-12-18T03:47:13;-3270.80;81.20
21493;DHT22;10908;50.690;4.400;2022-12-18T03:50:10;-3271.00;81.20
21493;DHT22;10908;50.690;4.400;2022-12-18T03:52:57;-3270.90;80.70
21493;DHT22;10908;50.690;4.400;2022-12-18T03:55:25;-3270.90;80.50
21493;DHT22;10908;50.690;4.400;2022-12-18T03:57:54;-3270.90;80.50
21493;DHT22;10908;50.690;4.400;2022-12-18T04:00:20;-3270.80;80.40
21493;DHT22;10908;50.690;4.400;2022-12-18T04:02:50;-3270.70;80.50
21493;DHT22;10908;50.690;4.400;2022-12-18T04:05:20;-3270.70;80.70
21493;DHT22;10908;50.690;4.400;2022-12-18T04:07:47;-3270.50;80.60
21493;DHT22;10908;50.690;4.400;2022-12-18T04:10:15;-3270.30;80.60
21493;DHT22;10908;50.690;4.400;2022-12-18T04:12:41;-3270.10;81.00
21493;DHT22;10908;50.690;4.400;2022-12-18T04:15:08;-3270.10;81.50
21493;DHT22;10908;50.690;4.400;2022-12-18T04:17:34;-3270.20;81.80
21493;DHT22;10908;50.690;4.400;2022-12-18T04:20:00;-3270.40;81.80
21493;DHT22;10908;50.690;4.400;2022-12-18T04:22:27;-3270.50;81.70
21493;DHT22;10908;50.690;4.400;2022-12-18T04:24:52;-3270.40;81.80
21493;DHT22;10908;50.690;4.400;2022-12-18T04:27:18;-3270.30;82.10
21493;DHT22;10908;50.690;4.400;2022-12-18T04:29:44;-3270.60;82.20
21493;DHT22;10908;50.690;4.400;2022-12-18T04:32:09;-3270.40;81.50
21493;DHT22;10908;50.690;4.400;2022-12-18T04:34:35;-3270.20;81.10
21493;DHT22;10908;50.690;4.400;2022-12-18T04:37:00;-3270.10;81.40
21493;DHT22;10908;50.690;4.400;2022-12-18T04:39:26;-3270.10;81.70
21493;DHT22;10908;50.690;4.400;2022-12-18T04:41:52;-3270.20;82.00
21493;DHT22;10908;50.690;4.400;2022-12-18T04:44:17;-3270.30;81.70
21493;DHT22;10908;50.690;4.400;2022-12-18T04:46:43;-3270.10;80.90
21493;DHT22;10908;50.690;4.400;2022-12-18T04:49:09;-3270.00;81.30
21493;DHT22;10908;50.690;4.400;2022-12-18T04:51:36;-3270.00;81.60
21493;DHT22;10908;50.690;4.400;2022-12-18T04:54:02;-3270.10;81.60
21493;DHT22;10908;50.690;4.400;2022-12-18T04:56:28;-3270.40;81.70
21493;DHT22;10908;50.690;4.400;2022-12-18T04:58:53;-3270.80;81.20
21493;DHT22;10908;50.690;4.400;2022-12-18T05:01:19;-3270.70;79.60
21493;DHT22;10908;50.690;4.400;2022-12-18T05:03:45;-3270.50;78.70
21493;DHT22;10908;50.690;4.400;2022-12-18T05:06:11;-3270.10;78.80
21493;DHT22;10908;50.690;4.400;2022-12-18T05:08:36;-3270.00;79.50
21493;DHT22;10908;50.690;4.400;2022-12-18T05:13:30;-3269.90;80.10
21493;DHT22;10908;50.690;4.400;2022-12-18T05:15:56;-3270.00;80.10
21493;DHT22;10908;50.690;4.400;2022-12-18T05:18:23;-3270.20;80.10
21493;DHT22;10908;50.690;4.400;2022-12-18T05:20:50;-3270.30;80.00
21493;DHT22;10908;50.690;4.400;2022-12-18T05:23:16;-3270.10;79.40
21493;DHT22;10908;50.690;4.400;2022-12-18T05:25:42;-3270.00;79.50
21493;DHT22;10908;50.690;4.400;2022-12-18T05:28:08;-3270.10;79.70
21493;DHT22;10908;50.690;4.400;2022-12-18T05:30:33;-3270.10;79.90
21493;DHT22;10908;50.690;4.400;2022-12-18T05:32:59;-3270.30;79.80
21493;DHT22;10908;50.690;4.400;2022-12-18T05:35:24;-3270.40;79.80
21493;DHT22;10908;50.690;4.400;2022-12-18T05:37:50;-3270.40;80.10
21493;DHT22;10908;50.690;4.400;2022-12-18T05:40:16;-3270.50;81.10
21493;DHT22;10908;50.690;4.400;2022-12-18T05:42:41;-3270.50;81.40
21493;DHT22;10908;50.690;4.400;2022-12-18T05:45:07;-3270.70;81.60
21493;DHT22;10908;50.690;4.400;2022-12-18T05:47:33;-3270.80;81.60
21493;DHT22;10908;50.690;4.400;2022-12-18T05:49:58;-3270.90;81.50
21493;DHT22;10908;50.690;4.400;2022-12-18T05:52:24;-3270.90;81.10
21493;DHT22;10908;50.690;4.400;2022-12-18T05:54:50;-3270.90;80.70
21493;DHT22;10908;50.690;4.400;2022-12-18T05:57:15;-3271.00;80.60
21493;DHT22;10908;50.690;4.400;2022-12-18T05:59:41;-3271.10;80.30
21493;DHT22;10908;50.690;4.400;2022-12-18T06:02:06;-3270.90;79.90
21493;DHT22;10908;50.690;4.400;2022-12-18T06:04:32;-3271.10;79.60
21493;DHT22;10908;50.690;4.400;2022-12-18T06:06:58;-3271.40;79.30
21493;DHT22;10908;50.690;4.400;2022-12-18T06:09:24;-3271.00;78.60
21493;DHT22;10908;50.690;4.400;2022-12-18T06:11:51;-3270.60;78.80
21493;DHT22;10908;50.690;4.400;2022-12-18T06:14:17;-3270.10;79.40
21493;DHT22;10908;50.690;4.400;2022-12-18T06:16:43;-3270.00;80.20
21493;DHT22;10908;50.690;4.400;2022-12-18T06:19:15;-3269.90;81.10
21493;DHT22;10908;50.690;4.400;2022-12-18T06:21:41;-3269.90;81.80
21493;DHT22;10908;50.690;4.400;2022-12-18T06:24:07;-3270.00;82.20
21493;DHT22;10908;50.690;4.400;2022-12-18T06:26:33;-3270.10;82.50
21493;DHT22;10908;50.690;4.400;2022-12-18T06:28:59;-3270.20;82.60
21493;DHT22;10908;50.690;4.400;2022-12-18T06:31:25;-3270.40;82.50
21493;DHT22;10908;50.690;4.400;2022-12-18T06:33:51;-3270.50;82.40
21493;DHT22;10908;50.690;4.400;2022-12-18T06:36:17;-3270.50;82.00
21493;DHT22;10908;50.690;4.400;2022-12-18T06:38:43;-3270.70;81.70
21493;DHT22;10908;50.690;4.400;2022-12-18T06:41:11;-3270.80;81.30
21493;DHT22;10908;50.690;4.400;2022-12-18T06:43:37;-3270.70;81.00
21493;DHT22;10908;50.690;4.400;2022-12-18T06:46:04;-3270.60;80.60
21493;DHT22;10908;50.690;4.400;2022-12-18T06:48:30;-3270.70;80.60
21493;DHT22;10908;50.690;4.400;2022-12-18T06:50:56;-3270.70;80.30
21493;DHT22;10908;50.690;4.400;2022-12-18T06:53:22;-3270.70;80.20
21493;DHT22;10908;50.690;4.400;2022-12-18T06:55:48;-3270.70;80.40
21493;DHT22;10908;50.690;4.400;2022-12-18T06:58:14;-3270.60;80.20
21493;DHT22;10908;50.690;4.400;2022-12-18T07:00:39;-3270.60;80.40
21493;DHT22;10908;50.690;4.400;2022-12-18T07:03:05;-3270.50;80.40
21493;DHT22;10908;50.690;4.400;2022-12-18T07:05:31;-3270.60;80.80
21493;DHT22;10908;50.690;4.400;2022-12-18T07:07:57;-3270.60;81.00
21493;DHT22;10908;50.690;4.400;2022-12-18T07:10:23;-3270.90;81.20
21493;DHT22;10908;50.690;4.400;2022-12-18T07:12:48;-3270.90;81.10
21493;DHT22;10908;50.690;4.400;2022-12-18T07:15:14;-3271.10;80.90
21493;DHT22;10908;50.690;4.400;2022-12-18T07:17:39;-3271.30;80.80
21493;DHT22;10908;50.690;4.400;2022-12-18T07:20:05;-3271.20;80.30
21493;DHT22;10908;50.690;4.400;2022-12-18T07:22:31;-3271.20;80.10
21493;DHT22;10908;50.690;4.400;2022-12-18T07:24:57;-3271.30;80.00
21493;DHT22;10908;50.690;4.400;2022-12-18T07:27:22;-3271.20;79.60
21493;DHT22;10908;50.690;4.400;2022-12-18T07:29:48;-3270.90;79.40
21493;DHT22;10908;50.690;4.400;2022-12-18T07:32:14;-3271.40;79.50
21493;DHT22;10908;50.690;4.400;2022-12-18T07:34:40;-3271.20;79.00
21493;DHT22;10908;50.690;4.400;2022-12-18T07:37:05;-3271.10;79.10
21493;DHT22;10908;50.690;4.400;2022-12-18T07:39:31;-3271.00;79.10
21493;DHT22;10908;50.690;4.400;2022-12-18T07:41:56;-3270.90;79.70
21493;DHT22;10908;50.690;4.400;2022-12-18T07:44:41;-3271.00;80.40
21493;DHT22;10908;50.690;4.400;2022-12-18T07:47:06;-3271.20;80.80
21493;DHT22;10908;50.690;4.400;2022-12-18T07:49:32;-3271.30;80.70
21493;DHT22;10908;50.690;4.400;2022-12-18T07:51:58;-3271.20;80.50
21493;DHT22;10908;50.690;4.400;2022-12-18T07:54:24;-3271.10;80.70
21493;DHT22;10908;50.690;4.400;2022-12-18T07:56:50;-3271.00;80.90
21493;DHT22;10908;50.690;4.400;2022-12-18T07:59:16;-3271.20;81.10
21493;DHT22;10908;50.690;4.400;2022-12-18T08:01:41;-3271.20;81.20
21493;DHT22;10908;50.690;4.400;2022-12-18T08:04:07;-3271.50;81.30
21493;DHT22;10908;50.690;4.400;2022-12-18T08:06:33;-3271.60;81.10
21493;DHT22;10908;50.690;4.400;2022-12-18T08:08:58;-3271.60;80.80
21493;DHT22;10908;50.690;4.400;2022-12-18T08:11:26;-3271.60;80.40
21493;DHT22;10908;50.690;4.400;2022-12-18T08:13:52;-3271.60;80.10
21493;DHT22;10908;50.690;4.400;2022-12-18T08:16:18;-3271.60;80.00
21493;DHT22;10908;50.690;4.400;2022-12-18T08:18:44;-3271.60;80.00
21493;DHT22;10908;50.690;4.400;2022-12-18T08:21:16;-3271.70;80.30
21493;DHT22;10908;50.690;4.400;2022-12-18T08:23:43;-3271.60;80.50
21493;DHT22;10908;50.690;4.400;2022-12-18T08:26:10;-3271.80;80.90
21493;DHT22;10908;50.690;4.400;2022-12-18T08:28:36;-3271.90;81.00
21493;DHT22;10908;50.690;4.400;2022-12-18T08:31:01;-3272.10;80.90
21493;DHT22;10908;50.690;4.400;2022-12-18T08:33:27;-3272.30;80.70
21493;DHT22;10908;50.690;4.400;2022-12-18T08:35:53;-3272.40;80.40
21493;DHT22;10908;50.690;4.400;2022-12-18T08:38:19;-3272.60;80.40
21493;DHT22;10908;50.690;4.400;2022-12-18T08:40:44;-3272.70;80.30
21493;DHT22;10908;50.690;4.400;2022-12-18T08:43:10;-3272.80;80.10
21493;DHT22;10908;50.690;4.400;2022-12-18T08:45:55;-3272.90;79.90
21493;DHT22;10908;50.690;4.400;2022-12-18T08:48:20;-3272.90;80.00
21493;DHT22;10908;50.690;4.400;2022-12-18T08:50:59;-3272.90;80.20
21493;DHT22;10908;50.690;4.400;2022-12-18T08:53:25;-3273.10;80.40
21493;DHT22;10908;50.690;4.400;2022-12-18T08:55:52;-3273.00;80.40
21493;DHT22;10908;50.690;4.400;2022-12-18T08:58:18;-3273.20;80.60
21493;DHT22;10908;50.690;4.400;2022-12-18T09:00:43;-3273.30;80.60
21493;DHT22;10908;50.690;4.400;2022-12-18T09:03:16;-3273.40;80.50
21493;DHT22;10908;50.690;4.400;2022-12-18T09:05:43;-3273.50;80.60
21493;DHT22;10908;50.690;4.400;2022-12-18T09:08:08;-3273.60;80.60
21493;DHT22;10908;50.690;4.400;2022-12-18T09:10:40;-3273.80;80.80
21493;DHT22;10908;50.690;4.400;2022-12-18T09:13:06;-3273.90;81.00
21493;DHT22;10908;50.690;4.400;2022-12-18T09:15:31;-3274.10;81.10
21493;DHT22;10908;50.690;4.400;2022-12-18T09:17:57;-3274.30;80.60
21493;DHT22;10908;50.690;4.400;2022-12-18T09:20:23;-3274.40;80.20
21493;DHT22;10908;50.690;4.400;2022-12-18T09:22:48;-3274.50;80.00
21493;DHT22;10908;50.690;4.400;2022-12-18T09:25:14;-3274.50;79.90
21493;DHT22;10908;50.690;4.400;2022-12-18T09:27:40;-3274.60;79.90
21493;DHT22;10908;50.690;4.400;2022-12-18T09:30:06;-3274.70;79.90
21493;DHT22;10908;50.690;4.400;2022-12-18T09:32:32;-3274.70;79.80
21493;DHT22;10908;50.690;4.400;2022-12-18T09:34:57;-3274.80;79.80
21493;DHT22;10908;50.690;4.400;2022-12-18T09:37:23;-3274.80;79.80
21493;DHT22;10908;50.690;4.400;2022-12-18T09:39:48;-3275.00;79.70
21493;DHT22;10908;50.690;4.400;2022-12-18T09:42:21;-3275.10;79.40
21493;DHT22;10908;50.690;4.400;2022-12-18T09:44:53;-3275.20;79.30
21493;DHT22;10908;50.690;4.400;2022-12-18T09:47:32;-3275.20;79.10
21493;DHT22;10908;50.690;4.400;2022-12-18T09:50:04;-3275.30;78.90
21493;DHT22;10908;50.690;4.400;2022-12-18T09:52:37;-3275.40;78.80
21493;DHT22;10908;50.690;4.400;2022-12-18T09:55:12;-3275.50;78.80
21493;DHT22;10908;50.690;4.400;2022-12-18T09:57:45;-3275.50;78.50
21493;DHT22;10908;50.690;4.400;2022-12-18T10:00:19;-3275.60;78.30
21493;DHT22;10908;50.690;4.400;2022-12-18T10:02:45;-3275.70;77.90
21493;DHT22;10908;50.690;4.400;2022-12-18T10:05:43;-3275.70;77.70
21493;DHT22;10908;50.690;4.400;2022-12-18T10:10:52;-3275.80;77.40
21493;DHT22;10908;50.690;4.400;2022-12-18T10:13:38;-3275.80;77.50
21493;DHT22;10908;50.690;4.400;2022-12-18T10:16:17;-3275.80;77.30
21493;DHT22;10908;50.690;4.400;2022-12-18T10:21:31;-3275.90;77.10
21493;DHT22;10908;50.690;4.400;2022-12-18T10:26:45;-3276.10;76.80
21493;DHT22;10908;50.690;4.400;2022-12-18T10:29:13;-3276.10;76.50
21493;DHT22;10908;50.690;4.400;2022-12-18T10:31:39;-3276.10;76.20
21493;DHT22;10908;50.690;4.400;2022-12-18T10:34:11;-3276.10;76.10
21493;DHT22;10908;50.690;4.400;2022-12-18T10:36:37;-3276.20;76.10
21493;DHT22;10908;50.690;4.400;2022-12-18T10:41:42;-3276.40;75.50
21493;DHT22;10908;50.690;4.400;2022-12-18T10:44:22;-3276.40;75.40
21493;DHT22;10908;50.690;4.400;2022-12-18T10:46:50;-3276.40;75.30
21493;DHT22;10908;50.690;4.400;2022-12-18T10:49:27;-3276.50;75.20
21493;DHT22;10908;50.690;4.400;2022-12-18T10:52:17;-3276.50;75.10
21493;DHT22;10908;50.690;4.400;2022-12-18T10:54:55;-3276.60;75.10
21493;DHT22;10908;50.690;4.400;2022-12-18T10:59:57;-3276.70;74.70
21493;DHT22;10908;50.690;4.400;2022-12-18T11:02:37;-3276.70;74.30
21493;DHT22;10908;50.690;4.400;2022-12-18T11:05:22;-3276.70;74.30
21493;DHT22;10908;50.690;4.400;2022-12-18T11:07:50;0.00;74.10
21493;DHT22;10908;50.690;4.400;2022-12-18T11:10:20;0.00;74.20
21493;DHT22;10908;50.690;4.400;2022-12-18T11:12:46;0.00;74.00
21493;DHT22;10908;50.690;4.400;2022-12-18T11:15:26;0.00;73.90
21493;DHT22;10908;50.690;4.400;2022-12-18T11:17:52;0.00;74.10
21493;DHT22;10908;50.690;4.400;2022-12-18T11:20:34;0.00;74.30
21493;DHT22;10908;50.690;4.400;2022-12-18T11:23:01;0.00;74.20
21493;DHT22;10908;50.690;4.400;2022-12-18T11:25:28;0.00;74.20
21493;DHT22;10908;50.690;4.400;2022-12-18T11:28:01;0.10;74.20
21493;DHT22;10908;50.690;4.400;2022-12-18T11:30:32;0.10;73.90
21493;DHT22;10908;50.690;4.400;2022-12-18T11:33:10;0.10;73.80
21493;DHT22;10908;50.690;4.400;2022-12-18T11:38:25;0.20;74.40
21493;DHT22;10908;50.690;4.400;2022-12-18T11:44:13;0.20;74.30
21493;DHT22;10908;50.690;4.400;2022-12-18T11:46:53;0.30;74.20
21493;DHT22;10908;50.690;4.400;2022-12-18T11:49:27;0.40;73.60
21493;DHT22;10908;50.690;4.400;2022-12-18T11:52:14;0.40;73.60
21493;DHT22;10908;50.690;4.400;2022-12-18T11:54:41;0.40;73.80
21493;DHT22;10908;50.690;4.400;2022-12-18T12:00:02;0.40;73.50
21493;DHT22;10908;50.690;4.400;2022-12-18T12:08:19;0.50;72.90
21493;DHT22;10908;50.690;4.400;2022-12-18T12:16:46;0.70;72.40
21493;DHT22;10908;50.690;4.400;2022-12-18T12:19:51;0.70;72.20
21493;DHT22;10908;50.690;4.400;2022-12-18T12:25:20;0.60;73.00
21493;DHT22;10908;50.690;4.400;2022-12-18T12:28:26;0.60;72.80
21493;DHT22;10908;50.690;4.400;2022-12-18T12:34:21;0.60;72.70
21493;DHT22;10908;50.690;4.400;2022-12-18T12:37:06;0.70;72.80
21493;DHT22;10908;50.690;4.400;2022-12-18T12:39:40;0.60;72.50
21493;DHT22;10908;50.690;4.400;2022-12-18T12:42:21;0.60;73.00
21493;DHT22;10908;50.690;4.400;2022-12-18T12:45:16;0.50;72.30
21493;DHT22;10908;50.690;4.400;2022-12-18T12:47:44;0.70;74.70
21493;DHT22;10908;50.690;4.400;2022-12-18T12:50:17;0.80;73.80
21493;DHT22;10908;50.690;4.400;2022-12-18T12:52:53;0.70;72.80
21493;DHT22;10908;50.690;4.400;2022-12-18T12:55:25;0.60;72.70
21493;DHT22;10908;50.690;4.400;2022-12-18T12:58:21;0.60;73.20
21493;DHT22;10908;50.690;4.400;2022-12-18T13:08:58;0.60;73.80
21493;DHT22;10908;50.690;4.400;2022-12-18T13:11:39;0.60;74.20
21493;DHT22;10908;50.690;4.400;2022-12-18T13:14:44;0.60;74.70
21493;DHT22;10908;50.690;4.400;2022-12-18T13:17:30;0.60;74.50
21493;DHT22;10908;50.690;4.400;2022-12-18T13:20:03;0.70;74.10
21493;DHT22;10908;50.690;4.400;2022-12-18T13:22:43;0.60;73.70
21493;DHT22;10908;50.690;4.400;2022-12-18T13:25:34;0.60;74.10
21493;DHT22;10908;50.690;4.400;2022-12-18T13:28:11;0.60;74.40
21493;DHT22;10908;50.690;4.400;2022-12-18T13:30:47;0.70;74.20
21493;DHT22;10908;50.690;4.400;2022-12-18T13:38:44;0.70;73.40
21493;DHT22;10908;50.690;4.400;2022-12-18T13:46:29;0.70;74.00
21493;DHT22;10908;50.690;4.400;2022-12-18T13:49:20;0.70;74.10
21493;DHT22;10908;50.690;4.400;2022-12-18T13:51:49;0.80;74.20
21493;DHT22;10908;50.690;4.400;2022-12-18T13:54:38;0.80;74.40
21493;DHT22;10908;50.690;4.400;2022-12-18T13:57:22;0.80;74.20
21493;DHT22;10908;50.690;4.400;2022-12-18T13:59:49;0.80;73.50
21493;DHT22;10908;50.690;4.400;2022-12-18T14:02:16;0.80;73.30
21493;DHT22;10908;50.690;4.400;2022-12-18T14:04:45;0.70;73.00
21493;DHT22;10908;50.690;4.400;2022-12-18T14:07:26;0.60;73.40
21493;DHT22;10908;50.690;4.400;2022-12-18T14:09:55;0.70;73.00
21493;DHT22;10908;50.690;4.400;2022-12-18T14:12:33;0.70;73.30
21493;DHT22;10908;50.690;4.400;2022-12-18T14:20:43;0.80;73.10
21493;DHT22;10908;50.690;4.400;2022-12-18T14:23:32;0.80;72.70
21493;DHT22;10908;50.690;4.400;2022-12-18T14:25:58;0.80;72.50
21493;DHT22;10908;50.690;4.400;2022-12-18T14:28:24;0.80;72.70
21493;DHT22;10908;50.690;4.400;2022-12-18T14:30:52;0.80;72.70
21493;DHT22;10908;50.690;4.400;2022-12-18T14:33:24;0.80;73.00
21493;DHT22;10908;50.690;4.400;2022-12-18T14:41:03;0.90;72.90
21493;DHT22;10908;50.690;4.400;2022-12-18T14:43:32;0.90;72.70
21493;DHT22;10908;50.690;4.400;2022-12-18T14:45:59;0.90;72.00
21493;DHT22;10908;50.690;4.400;2022-12-18T14:48:42;0.90;72.10
21493;DHT22;10908;50.690;4.400;2022-12-18T14:51:23;0.90;72.40
21493;DHT22;10908;50.690;4.400;2022-12-18T14:59:01;0.80;73.00
21493;DHT22;10908;50.690;4.400;2022-12-18T15:01:34;0.70;73.50
21493;DHT22;10908;50.690;4.400;2022-12-18T15:04:01;0.70;73.70
21493;DHT22;10908;50.690;4.400;2022-12-18T15:06:35;0.70;73.80
21493;DHT22;10908;50.690;4.400;2022-12-18T15:09:22;0.70;73.60
21493;DHT22;10908;50.690;4.400;2022-12-18T15:11:49;0.70;73.50
21493;DHT22;10908;50.690;4.400;2022-12-18T15:14:42;0.70;73.60
21493;DHT22;10908;50.690;4.400;2022-12-18T15:17:21;0.70;73.50
21493;DHT22;10908;50.690;4.400;2022-12-18T15:19:50;0.70;73.50
21493;DHT22;10908;50.690;4.400;2022-12-18T15:22:31;0.80;73.50
21493;DHT22;10908;50.690;4.400;2022-12-18T15:24:59;0.80;73.20
21493;DHT22;10908;50.690;4.400;2022-12-18T15:27:35;0.70;73.20
21493;DHT22;10908;50.690;4.400;2022-12-18T15:32:37;0.70;72.80
21493;DHT22;10908;50.690;4.400;2022-12-18T15:35:20;0.70;72.60
21493;DHT22;10908;50.690;4.400;2022-12-18T15:37:45;0.60;72.30
21493;DHT22;10908;50.690;4.400;2022-12-18T15:40:16;0.70;72.10
21493;DHT22;10908;50.690;4.400;2022-12-18T15:56:02;0.70;71.60
21493;DHT22;10908;50.690;4.400;2022-12-18T15:58:46;0.80;71.20
21493;DHT22;10908;50.690;4.400;2022-12-18T16:01:11;0.70;71.30
21493;DHT22;10908;50.690;4.400;2022-12-18T16:03:37;0.80;71.40
21493;DHT22;10908;50.690;4.400;2022-12-18T16:06:03;0.90;71.50
21493;DHT22;10908;50.690;4.400;2022-12-18T16:08:29;0.80;71.60
21493;DHT22;10908;50.690;4.400;2022-12-18T16:10:56;0.80;71.90
21493;DHT22;10908;50.690;4.400;2022-12-18T16:13:22;0.80;71.70
21493;DHT22;10908;50.690;4.400;2022-12-18T16:15:48;0.80;71.40
21493;DHT22;10908;50.690;4.400;2022-12-18T16:18:14;0.80;71.30
21493;DHT22;10908;50.690;4.400;2022-12-18T16:20:40;0.80;71.40
21493;DHT22;10908;50.690;4.400;2022-12-18T16:23:06;0.80;71.50
21493;DHT22;10908;50.690;4.400;2022-12-18T16:25:32;0.80;71.50
21493;DHT22;10908;50.690;4.400;2022-12-18T16:27:58;0.90;71.60
21493;DHT22;10908;50.690;4.400;2022-12-18T16:30:26;0.80;71.10
21493;DHT22;10908;50.690;4.400;2022-12-18T16:32:53;0.80;71.10
21493;DHT22;10908;50.690;4.400;2022-12-18T16:35:20;0.80;71.40
21493;DHT22;10908;50.690;4.400;2022-12-18T16:37:46;0.80;71.10
21493;DHT22;10908;50.690;4.400;2022-12-18T16:40:13;0.80;71.00
21493;DHT22;10908;50.690;4.400;2022-12-18T16:42:43;0.90;71.10
21493;DHT22;10908;50.690;4.400;2022-12-18T16:45:11;0.90;71.10
21493;DHT22;10908;50.690;4.400;2022-12-18T16:47:37;0.90;71.20
21493;DHT22;10908;50.690;4.400;2022-12-18T16:50:04;0.90;70.70
21493;DHT22;10908;50.690;4.400;2022-12-18T16:52:30;0.90;70.50
21493;DHT22;10908;50.690;4.400;2022-12-18T16:54:55;0.90;70.80
21493;DHT22;10908;50.690;4.400;2022-12-18T16:57:22;0.90;70.60
21493;DHT22;10908;50.690;4.400;2022-12-18T16:59:48;1.00;70.40
21493;DHT22;10908;50.690;4.400;2022-12-18T17:02:22;1.10;70.00
21493;DHT22;10908;50.690;4.400;2022-12-18T17:04:48;1.10;70.40
21493;DHT22;10908;50.690;4.400;2022-12-18T17:07:14;1.00;70.30
21493;DHT22;10908;50.690;4.400;2022-12-18T17:09:41;1.00;70.30
21493;DHT22;10908;50.690;4.400;2022-12-18T17:12:07;1.00;70.80
21493;DHT22;10908;50.690;4.400;2022-12-18T17:14:35;1.10;70.70